createdAt,value
2017-12-26T00:02:26.612Z,87.90
2017-12-26T00:04:54.099Z,87.90
2017-12-26T00:07:21.545Z,87.80
2017-12-26T00:09:49.056Z,87.80
2017-12-26T00:12:16.485Z,87.70
2017-12-26T00:14:43.912Z,87.70
2017-12-26T00:17:12.104Z,87.60
2017-12-26T00:19:39.541Z,87.60
2017-12-26T00:22:07.734Z,87.60
2017-12-26T00:24:35.233Z,87.50
2017-12-26T00:27:02.677Z,87.60
2017-12-26T00:29:30.111Z,87.60
2017-12-26T00:31:57.621Z,87.50
2017-12-26T00:34:25.072Z,87.50
2017-12-26T00:36:52.501Z,87.50
2017-12-26T00:39:19.935Z,87.60
2017-12-26T00:41:48.132Z,87.50
2017-12-26T00:44:15.569Z,87.50
2017-12-26T00:46:43.001Z,87.40
2017-12-26T00:49:11.237Z,88.20
2017-12-26T00:51:38.675Z,87.50
2017-12-26T00:54:06.096Z,87.30
2017-12-26T00:56:34.305Z,87.30
2017-12-26T00:59:01.763Z,87.30
2017-12-26T01:01:29.236Z,87.20
2017-12-26T01:03:56.682Z,87.20
2017-12-26T01:06:24.114Z,87.20
2017-12-26T01:08:51.543Z,87.20
2017-12-26T01:11:19.061Z,87.30
2017-12-26T01:13:46.517Z,87.30
2017-12-26T01:16:13.940Z,87.30
2017-12-26T01:18:41.385Z,87.30
2017-12-26T01:21:09.578Z,87.30
2017-12-26T01:23:37.023Z,87.30
2017-12-26T01:26:10.141Z,87.20
2017-12-26T01:28:37.550Z,87.20
2017-12-26T01:31:05.748Z,87.30
2017-12-26T01:33:33.950Z,87.30
2017-12-26T01:36:01.417Z,87.20
2017-12-26T01:38:28.896Z,87.30
2017-12-26T01:40:56.432Z,87.30
2017-12-26T01:43:23.896Z,87.40
2017-12-26T01:45:51.357Z,87.40
2017-12-26T01:48:19.406Z,87.40
2017-12-26T01:50:46.893Z,87.40
2017-12-26T01:53:14.437Z,87.40
2017-12-26T01:55:41.993Z,87.40
2017-12-26T01:58:09.421Z,87.40
2017-12-26T02:00:37.739Z,87.40
2017-12-26T02:03:05.273Z,87.30
2017-12-26T02:05:32.753Z,87.30
2017-12-26T02:08:00.215Z,87.30
2017-12-26T02:10:27.670Z,87.30
2017-12-26T02:12:55.122Z,87.30
2017-12-26T02:15:22.578Z,87.20
2017-12-26T02:17:50.021Z,87.20
2017-12-26T02:20:17.476Z,87.20
2017-12-26T02:22:44.951Z,87.10
2017-12-26T02:25:12.385Z,87.10
2017-12-26T02:27:39.813Z,87.20
2017-12-26T02:30:08.035Z,87.10
2017-12-26T02:32:35.484Z,87.10
2017-12-26T02:35:02.957Z,87.10
2017-12-26T02:37:30.395Z,87.30
2017-12-26T02:39:57.870Z,87.20
2017-12-26T02:42:25.317Z,87.30
2017-12-26T02:44:52.765Z,87.30
2017-12-26T02:47:20.213Z,87.30
2017-12-26T02:49:47.690Z,87.30
2017-12-26T02:52:15.123Z,87.30
2017-12-26T02:54:42.569Z,87.40
2017-12-26T02:57:10.074Z,87.40
2017-12-26T02:59:37.497Z,87.50
2017-12-26T03:02:04.973Z,87.70
2017-12-26T03:04:32.409Z,87.80
2017-12-26T03:06:59.920Z,87.90
2017-12-26T03:09:27.360Z,88.00
2017-12-26T03:11:54.840Z,88.00
2017-12-26T03:14:22.264Z,88.10
2017-12-26T03:16:49.709Z,88.20
2017-12-26T03:19:17.164Z,88.10
2017-12-26T03:21:44.605Z,88.30
2017-12-26T03:24:12.813Z,88.30
2017-12-26T03:26:40.279Z,88.30
2017-12-26T03:29:07.710Z,88.30
2017-12-26T03:31:35.158Z,88.20
2017-12-26T03:34:02.633Z,88.10
2017-12-26T03:36:30.066Z,88.00
2017-12-26T03:38:57.508Z,87.90
2017-12-26T03:41:25.716Z,87.90
2017-12-26T03:43:53.141Z,87.80
2017-12-26T03:46:21.460Z,88.40
2017-12-26T03:48:48.904Z,87.80
2017-12-26T03:51:16.350Z,87.70
2017-12-26T03:53:43.793Z,87.70
2017-12-26T03:56:11.293Z,87.70
2017-12-26T03:58:38.732Z,87.80
2017-12-26T04:01:06.191Z,87.60
2017-12-26T04:03:33.658Z,87.60
2017-12-26T04:06:01.095Z,87.50
2017-12-26T04:08:28.643Z,87.40
2017-12-26T04:10:56.039Z,88.00
2017-12-26T04:13:23.472Z,87.30
2017-12-26T04:15:50.913Z,87.20
2017-12-26T04:18:18.341Z,87.20
2017-12-26T04:20:45.864Z,87.20
2017-12-26T04:23:13.312Z,87.10
2017-12-26T04:25:40.781Z,87.10
2017-12-26T04:28:08.234Z,87.10
2017-12-26T04:30:35.678Z,87.20
2017-12-26T04:33:03.174Z,87.10
2017-12-26T04:35:30.709Z,87.10
2017-12-26T04:37:58.165Z,87.10
2017-12-26T04:40:25.632Z,87.20
2017-12-26T04:42:53.069Z,87.20
2017-12-26T04:45:20.536Z,87.20
2017-12-26T04:47:47.981Z,87.20
2017-12-26T04:50:15.407Z,87.20
2017-12-26T04:52:43.721Z,87.40
2017-12-26T04:55:11.177Z,87.50
2017-12-26T04:57:38.608Z,87.60
2017-12-26T05:00:06.060Z,87.70
2017-12-26T05:02:34.264Z,87.90
2017-12-26T05:05:01.753Z,87.90
2017-12-26T05:07:29.192Z,87.90
2017-12-26T05:09:56.637Z,88.10
2017-12-26T05:12:24.195Z,88.10
2017-12-26T05:14:51.669Z,88.20
2017-12-26T05:17:19.133Z,88.30
2017-12-26T05:19:47.401Z,88.50
2017-12-26T05:22:14.898Z,88.50
2017-12-26T05:24:43.125Z,89.00
2017-12-26T05:27:10.549Z,89.00
2017-12-26T05:29:38.751Z,89.60
2017-12-26T05:32:06.188Z,89.60
2017-12-26T05:34:33.617Z,89.90
2017-12-26T05:37:01.835Z,90.20
2017-12-26T05:39:29.315Z,90.20
2017-12-26T05:41:56.769Z,90.30
2017-12-26T05:44:24.215Z,90.40
2017-12-26T05:46:51.649Z,90.50
2017-12-26T05:49:19.082Z,90.60
2017-12-26T05:51:46.510Z,90.60
2017-12-26T05:54:14.041Z,90.70
2017-12-26T05:56:41.512Z,90.80
2017-12-26T05:59:08.970Z,90.80
2017-12-26T06:01:36.408Z,90.90
2017-12-26T06:04:03.890Z,90.90
2017-12-26T06:06:31.329Z,90.90
2017-12-26T06:08:58.760Z,91.00
2017-12-26T06:11:26.245Z,91.10
2017-12-26T06:13:53.700Z,91.10
2017-12-26T06:16:21.154Z,91.10
2017-12-26T06:18:48.585Z,91.10
2017-12-26T06:21:16.024Z,91.20
2017-12-26T06:23:44.229Z,91.50
2017-12-26T06:26:11.653Z,91.20
2017-12-26T06:28:39.901Z,91.30
2017-12-26T06:31:07.335Z,91.20
2017-12-26T06:33:34.805Z,91.30
2017-12-26T06:36:02.349Z,91.40
2017-12-26T06:38:29.812Z,91.40
2017-12-26T06:40:57.273Z,91.40
2017-12-26T06:43:24.732Z,91.50
2017-12-26T06:45:52.157Z,91.50
2017-12-26T06:48:19.663Z,91.50
2017-12-26T06:50:47.213Z,91.50
2017-12-26T06:53:14.661Z,91.50
2017-12-26T06:55:42.118Z,91.50
2017-12-26T06:58:09.572Z,91.50
2017-12-26T07:00:37.036Z,91.50
2017-12-26T07:03:04.473Z,91.50
2017-12-26T07:05:31.932Z,91.50
2017-12-26T07:07:59.403Z,91.50
2017-12-26T07:10:26.858Z,91.50
2017-12-26T07:12:54.298Z,91.50
2017-12-26T07:15:21.730Z,91.60
2017-12-26T07:17:49.953Z,91.60
2017-12-26T07:20:23.341Z,91.50
2017-12-26T07:22:50.774Z,91.50
2017-12-26T07:25:18.197Z,91.40
2017-12-26T07:27:46.403Z,91.50
2017-12-26T07:30:13.829Z,91.40
2017-12-26T07:32:42.065Z,91.40
2017-12-26T07:35:09.508Z,91.40
2017-12-26T07:37:36.981Z,91.40
2017-12-26T07:40:04.407Z,91.40
2017-12-26T07:42:31.844Z,91.40
2017-12-26T07:45:00.042Z,91.50
2017-12-26T07:47:27.476Z,91.40
2017-12-26T07:49:55.693Z,91.40
2017-12-26T07:52:23.122Z,91.40
2017-12-26T07:54:50.545Z,91.40
2017-12-26T07:57:17.985Z,91.50
2017-12-26T07:59:45.421Z,91.50
2017-12-26T08:02:12.854Z,91.60
2017-12-26T08:04:40.298Z,91.60
2017-12-26T08:07:08.589Z,91.60
2017-12-26T08:09:36.009Z,91.60
2017-12-26T08:12:03.445Z,91.50
2017-12-26T08:14:30.888Z,91.60
2017-12-26T08:16:58.353Z,91.50
2017-12-26T08:19:25.805Z,91.50
2017-12-26T08:21:53.265Z,91.50
2017-12-26T08:24:20.741Z,91.50
2017-12-26T08:26:48.193Z,91.40
2017-12-26T08:29:15.617Z,91.40
2017-12-26T08:31:43.049Z,91.40
2017-12-26T08:34:11.254Z,91.30
2017-12-26T08:36:38.698Z,91.30
2017-12-26T08:39:06.133Z,91.20
2017-12-26T08:41:34.347Z,91.30
2017-12-26T08:44:01.771Z,91.20
2017-12-26T08:46:29.960Z,91.20
2017-12-26T08:48:57.421Z,91.20
2017-12-26T08:51:24.901Z,91.20
2017-12-26T08:53:52.341Z,91.10
2017-12-26T08:56:19.912Z,91.10
2017-12-26T08:58:47.339Z,91.10
2017-12-26T09:01:14.789Z,91.00
2017-12-26T09:03:42.995Z,90.90
2017-12-26T09:06:10.421Z,90.90
2017-12-26T09:08:38.637Z,90.80
2017-12-26T09:11:06.086Z,90.80
2017-12-26T09:13:33.552Z,90.70
2017-12-26T09:16:00.979Z,90.70
2017-12-26T09:18:28.423Z,90.60
2017-12-26T09:20:56.612Z,90.50
2017-12-26T09:23:24.101Z,90.50
2017-12-26T09:25:51.705Z,90.50
2017-12-26T09:28:19.131Z,90.50
2017-12-26T09:30:46.585Z,90.60
2017-12-26T09:33:14.027Z,90.60
2017-12-26T09:35:41.454Z,90.60
2017-12-26T09:38:08.950Z,90.60
2017-12-26T09:40:36.396Z,90.50
2017-12-26T09:43:03.825Z,90.40
2017-12-26T09:45:31.253Z,90.40
2017-12-26T09:47:58.705Z,90.40
2017-12-26T09:50:26.899Z,90.10
2017-12-26T09:52:55.121Z,90.10
2017-12-26T09:55:22.565Z,90.00
2017-12-26T09:57:49.993Z,90.00
2017-12-26T10:00:18.181Z,89.70
2017-12-26T10:02:45.756Z,89.80
2017-12-26T10:05:13.161Z,89.60
2017-12-26T10:07:40.692Z,89.50
2017-12-26T10:10:08.252Z,90.10
2017-12-26T10:12:35.689Z,89.50
2017-12-26T10:15:03.116Z,89.60
2017-12-26T10:17:31.342Z,89.80
2017-12-26T10:19:58.839Z,89.80
2017-12-26T10:22:28.956Z,89.80
2017-12-26T10:25:00.363Z,89.50
2017-12-26T10:27:27.921Z,89.50
2017-12-26T10:29:55.409Z,89.30
2017-12-26T10:32:22.916Z,88.90
2017-12-26T10:34:50.403Z,88.50
2017-12-26T10:37:17.867Z,87.80
2017-12-26T10:39:46.755Z,86.90
2017-12-26T10:42:14.265Z,86.80
2017-12-26T10:44:42.501Z,86.40
2017-12-26T10:47:10.209Z,86.40
2017-12-26T10:49:37.695Z,86.00
2017-12-26T10:52:05.179Z,86.00
2017-12-26T10:54:33.026Z,86.10
2017-12-26T10:57:00.472Z,86.20
2017-12-26T10:59:27.961Z,85.90
2017-12-26T11:01:55.435Z,85.80
2017-12-26T11:04:22.949Z,85.60
2017-12-26T11:06:50.415Z,85.30
2017-12-26T11:09:17.851Z,85.10
2017-12-26T11:11:45.277Z,85.10
2017-12-26T11:14:13.473Z,85.10
2017-12-26T11:16:40.955Z,85.10
2017-12-26T11:19:08.405Z,85.00
2017-12-26T11:21:35.840Z,85.10
2017-12-26T11:24:03.277Z,85.00
2017-12-26T11:26:31.469Z,84.80
2017-12-26T11:28:59.001Z,84.80
2017-12-26T11:31:26.811Z,84.80
2017-12-26T11:33:54.286Z,84.60
2017-12-26T11:36:21.713Z,84.00
2017-12-26T11:38:49.156Z,83.70
2017-12-26T11:41:17.366Z,83.00
2017-12-26T11:43:44.789Z,83.00
2017-12-26T11:46:12.229Z,82.30
2017-12-26T11:48:40.453Z,81.90
2017-12-26T11:51:07.885Z,81.90
2017-12-26T11:53:35.333Z,81.80
2017-12-26T11:56:02.842Z,81.90
2017-12-26T11:58:30.285Z,81.80
2017-12-26T12:00:57.741Z,81.60
2017-12-26T12:03:25.169Z,81.90
2017-12-26T12:05:52.658Z,81.70
2017-12-26T12:08:20.116Z,81.60
2017-12-26T12:10:47.566Z,81.60
2017-12-26T12:13:15.025Z,81.70
2017-12-26T12:15:42.481Z,81.80
2017-12-26T12:18:09.937Z,81.40
2017-12-26T12:20:37.373Z,80.80
2017-12-26T12:23:04.856Z,80.90
2017-12-26T12:25:32.309Z,80.90
2017-12-26T12:27:59.966Z,81.00
2017-12-26T12:30:27.437Z,81.00
2017-12-26T12:32:54.894Z,81.10
2017-12-26T12:35:22.322Z,81.20
2017-12-26T12:37:49.769Z,81.10
2017-12-26T12:40:17.977Z,80.60
2017-12-26T12:42:45.448Z,80.50
2017-12-26T12:45:13.209Z,80.50
2017-12-26T12:47:40.662Z,80.30
2017-12-26T12:50:08.096Z,80.30
2017-12-26T12:52:35.568Z,80.40
2017-12-26T12:55:03.005Z,80.60
2017-12-26T12:57:30.436Z,80.50
2017-12-26T12:59:58.676Z,80.80
2017-12-26T13:02:26.121Z,80.80
2017-12-26T13:04:53.547Z,81.00
2017-12-26T13:07:20.985Z,81.30
2017-12-26T13:09:49.202Z,81.30
2017-12-26T13:12:16.680Z,81.30
2017-12-26T13:14:44.113Z,80.80
2017-12-26T13:17:12.053Z,81.50
2017-12-26T13:19:39.556Z,80.70
2017-12-26T13:22:06.992Z,80.50
2017-12-26T13:24:34.464Z,80.40
2017-12-26T13:27:01.966Z,80.40
2017-12-26T13:29:30.161Z,80.40
2017-12-26T13:31:57.657Z,80.40
2017-12-26T13:34:25.105Z,80.50
2017-12-26T13:36:53.335Z,81.00
2017-12-26T13:39:20.850Z,80.30
2017-12-26T13:41:48.293Z,80.50
2017-12-26T13:44:15.751Z,80.80
2017-12-26T13:46:43.161Z,80.70
2017-12-26T13:49:11.370Z,80.60
2017-12-26T13:51:38.831Z,80.60
2017-12-26T13:54:06.250Z,80.40
2017-12-26T13:56:34.499Z,80.10
2017-12-26T13:59:02.357Z,80.00
2017-12-26T14:01:29.789Z,80.00
2017-12-26T14:03:57.256Z,80.00
2017-12-26T14:06:24.721Z,79.80
2017-12-26T14:08:52.183Z,79.90
2017-12-26T14:11:19.641Z,79.80
2017-12-26T14:13:47.184Z,79.80
2017-12-26T14:16:14.652Z,79.70
2017-12-26T14:18:42.085Z,79.60
2017-12-26T14:21:09.567Z,79.60
2017-12-26T14:23:37.013Z,79.60
2017-12-26T14:26:04.451Z,79.60
2017-12-26T14:28:32.022Z,79.20
2017-12-26T14:30:59.505Z,79.20
2017-12-26T14:33:26.949Z,79.20
2017-12-26T14:35:54.389Z,79.20
2017-12-26T14:38:21.830Z,79.30
2017-12-26T14:40:49.275Z,79.40
2017-12-26T14:43:17.477Z,79.80
2017-12-26T14:45:45.157Z,79.80
2017-12-26T14:48:12.599Z,80.00
2017-12-26T14:50:40.069Z,80.20
2017-12-26T14:53:07.516Z,80.20
2017-12-26T14:55:35.034Z,80.30
2017-12-26T14:58:03.988Z,80.70
2017-12-26T15:00:31.417Z,80.60
2017-12-26T15:02:58.868Z,80.90
2017-12-26T15:05:26.316Z,81.10
2017-12-26T15:07:53.747Z,81.40
2017-12-26T15:10:21.190Z,81.60
2017-12-26T15:12:48.647Z,81.80
2017-12-26T15:15:16.064Z,81.90
2017-12-26T15:17:44.168Z,82.10
2017-12-26T15:20:12.255Z,82.30
2017-12-26T15:22:41.539Z,82.50
2017-12-26T15:25:14.540Z,82.50
2017-12-26T15:27:45.631Z,82.80
2017-12-26T15:30:14.849Z,82.80
2017-12-26T15:32:45.793Z,82.80
2017-12-26T15:35:28.292Z,82.80
2017-12-26T15:37:58.946Z,82.90
2017-12-26T15:43:20.368Z,83.10
2017-12-26T15:45:59.382Z,83.10
2017-12-26T15:48:29.270Z,83.10
2017-12-26T15:53:43.903Z,83.60
2017-12-26T15:56:15.984Z,83.80
2017-12-26T15:58:46.510Z,84.00
2017-12-26T16:01:16.633Z,84.20
2017-12-26T16:03:51.937Z,84.80
2017-12-26T16:06:21.340Z,84.80
2017-12-26T16:08:49.557Z,84.80
2017-12-26T16:11:20.595Z,85.10
2017-12-26T16:13:50.288Z,85.70
2017-12-26T16:16:20.300Z,85.20
2017-12-26T16:18:49.873Z,85.20
2017-12-26T16:21:22.278Z,85.30
2017-12-26T16:23:53.270Z,85.30
2017-12-26T16:29:04.109Z,85.60
2017-12-26T16:31:34.024Z,85.60
2017-12-26T16:34:04.353Z,85.80
2017-12-26T16:36:32.051Z,85.90
2017-12-26T16:38:59.921Z,85.90
2017-12-26T16:41:28.131Z,85.90
2017-12-26T16:43:55.600Z,85.90
2017-12-26T16:46:23.449Z,85.90
2017-12-26T16:48:50.993Z,85.90
2017-12-26T16:51:18.504Z,86.00
2017-12-26T16:53:45.925Z,85.90
2017-12-26T16:56:13.377Z,85.90
2017-12-26T16:58:40.837Z,85.90
2017-12-26T17:01:08.305Z,85.90
2017-12-26T17:03:35.769Z,85.80
2017-12-26T17:06:03.221Z,85.80
2017-12-26T17:08:30.670Z,85.80
2017-12-26T17:10:58.103Z,85.70
2017-12-26T17:13:25.605Z,86.00
2017-12-26T17:15:53.052Z,86.00
2017-12-26T17:18:20.509Z,85.90
2017-12-26T17:20:47.950Z,85.90
2017-12-26T17:23:16.535Z,85.90
2017-12-26T17:25:44.009Z,86.00
2017-12-26T17:28:11.453Z,86.00
2017-12-26T17:30:38.927Z,86.10
2017-12-26T17:33:06.354Z,86.00
2017-12-26T17:35:33.861Z,86.10
2017-12-26T17:38:01.276Z,86.10
2017-12-26T17:40:28.703Z,86.10
2017-12-26T17:42:56.926Z,86.20
2017-12-26T17:45:24.405Z,86.20
2017-12-26T17:47:52.266Z,86.30
2017-12-26T17:50:19.797Z,86.40
2017-12-26T17:52:47.352Z,86.50
2017-12-26T17:55:14.773Z,86.40
2017-12-26T17:57:42.981Z,86.50
2017-12-26T18:00:10.456Z,86.40
2017-12-26T18:02:37.916Z,86.50
2017-12-26T18:05:05.373Z,86.40
2017-12-26T18:07:32.813Z,86.50
2017-12-26T18:10:00.293Z,86.60
2017-12-26T18:12:27.857Z,86.70
2017-12-26T18:14:55.327Z,86.70
2017-12-26T18:17:22.747Z,86.60
2017-12-26T18:19:50.956Z,86.80
2017-12-26T18:22:18.382Z,86.60
2017-12-26T18:24:46.607Z,86.70
2017-12-26T18:27:14.056Z,86.70
2017-12-26T18:29:41.512Z,86.80
2017-12-26T18:32:08.958Z,86.80
2017-12-26T18:34:36.416Z,86.60
2017-12-26T18:37:03.868Z,86.60
2017-12-26T18:39:31.301Z,86.50
2017-12-26T18:41:59.557Z,86.40
2017-12-26T18:44:26.988Z,86.40
2017-12-26T18:46:54.428Z,86.30
2017-12-26T18:49:21.876Z,86.30
2017-12-26T18:51:49.316Z,86.40
2017-12-26T18:54:16.800Z,86.40
2017-12-26T18:56:44.253Z,86.40
2017-12-26T18:59:11.684Z,86.40
2017-12-26T19:01:39.116Z,86.50
2017-12-26T19:04:06.554Z,86.50
2017-12-26T19:06:33.992Z,86.60
2017-12-26T19:09:02.207Z,86.50
2017-12-26T19:11:29.640Z,86.50
2017-12-26T19:13:57.086Z,86.60
2017-12-26T19:16:24.517Z,86.60
2017-12-26T19:18:51.944Z,86.50
2017-12-26T19:21:20.145Z,86.50
2017-12-26T19:23:47.586Z,86.40
2017-12-26T19:26:15.068Z,86.40
2017-12-26T19:28:42.496Z,86.40
2017-12-26T19:31:09.932Z,86.50
2017-12-26T19:33:38.141Z,86.50
2017-12-26T19:36:05.604Z,86.50
2017-12-26T19:38:33.048Z,86.60
2017-12-26T19:41:00.528Z,86.50
2017-12-26T19:43:27.958Z,86.60
2017-12-26T19:45:55.392Z,86.70
2017-12-26T19:48:23.616Z,86.80
2017-12-26T19:50:51.072Z,86.80
2017-12-26T19:53:18.496Z,86.80
2017-12-26T19:55:45.939Z,86.80
2017-12-26T19:58:14.162Z,86.90
2017-12-26T20:00:41.588Z,86.90
2017-12-26T20:03:09.090Z,86.80
2017-12-26T20:05:36.515Z,86.80
2017-12-26T20:08:03.956Z,86.70
2017-12-26T20:10:31.405Z,86.80
2017-12-26T20:12:59.603Z,86.70
2017-12-26T20:15:27.061Z,86.70
2017-12-26T20:17:54.476Z,86.70
2017-12-26T20:20:22.672Z,86.60
2017-12-26T20:22:50.120Z,86.60
2017-12-26T20:25:18.325Z,86.60
2017-12-26T20:27:45.782Z,86.60
2017-12-26T20:30:13.386Z,86.60
2017-12-26T20:32:40.930Z,86.60
2017-12-26T20:35:08.365Z,86.60
2017-12-26T20:37:35.828Z,86.60
2017-12-26T20:40:03.278Z,86.70
2017-12-26T20:42:30.704Z,86.90
2017-12-26T20:44:58.893Z,87.10
2017-12-26T20:47:26.337Z,87.00
2017-12-26T20:49:53.765Z,87.10
2017-12-26T20:52:21.208Z,87.10
2017-12-26T20:54:48.668Z,87.40
2017-12-26T20:57:16.098Z,87.10
2017-12-26T20:59:43.525Z,87.10
2017-12-26T21:02:10.966Z,87.20
2017-12-26T21:04:39.187Z,87.30
2017-12-26T21:07:06.680Z,87.30
2017-12-26T21:09:34.207Z,87.30
2017-12-26T21:12:01.642Z,87.40
2017-12-26T21:14:29.089Z,87.40
2017-12-26T21:16:57.397Z,87.50
2017-12-26T21:19:24.825Z,87.50
2017-12-26T21:21:52.317Z,87.50
2017-12-26T21:24:19.775Z,87.50
2017-12-26T21:26:47.216Z,87.60
2017-12-26T21:29:14.691Z,87.60
2017-12-26T21:31:42.136Z,87.60
2017-12-26T21:34:09.612Z,87.50
2017-12-26T21:36:37.037Z,87.50
2017-12-26T21:39:04.472Z,87.50
2017-12-26T21:41:34.665Z,87.60
2017-12-26T21:46:41.865Z,87.50
2017-12-26T21:49:10.302Z,87.40
2017-12-26T21:51:38.933Z,87.50
2017-12-26T21:54:07.051Z,87.40
2017-12-26T21:56:37.245Z,87.50
2017-12-26T21:59:05.301Z,87.40
2017-12-26T22:01:33.049Z,87.40
2017-12-26T22:04:01.205Z,87.40
2017-12-26T22:06:28.998Z,87.40
2017-12-26T22:08:57.383Z,87.50
2017-12-26T22:11:26.085Z,87.50
2017-12-26T22:13:55.452Z,87.50
2017-12-26T22:16:23.220Z,87.50
2017-12-26T22:18:51.085Z,87.50
2017-12-26T22:21:22.005Z,87.50
2017-12-26T22:23:52.632Z,87.50
2017-12-26T22:26:23.629Z,87.50
2017-12-26T22:28:51.436Z,87.50
2017-12-26T22:31:20.180Z,87.60
2017-12-26T22:33:48.246Z,87.50
2017-12-26T22:36:15.997Z,87.60
2017-12-26T22:38:53.659Z,87.70
2017-12-26T22:41:22.402Z,87.60
2017-12-26T22:43:52.525Z,87.60
2017-12-26T22:46:21.006Z,87.70
2017-12-26T22:48:55.495Z,87.60
2017-12-26T22:51:26.952Z,87.70
2017-12-26T22:53:57.822Z,87.70
2017-12-26T22:59:02.572Z,87.80
2017-12-26T23:01:32.889Z,87.80
2017-12-26T23:04:08.540Z,87.80
2017-12-26T23:06:40.706Z,87.80
2017-12-26T23:09:10.819Z,87.80
2017-12-26T23:11:39.197Z,88.50
2017-12-26T23:14:15.461Z,87.80
2017-12-26T23:16:51.007Z,87.80
2017-12-26T23:19:19.373Z,87.80
2017-12-26T23:21:48.994Z,87.90
2017-12-26T23:24:23.622Z,87.80
2017-12-26T23:26:58.040Z,87.80
2017-12-26T23:29:31.334Z,87.70
2017-12-26T23:32:04.731Z,87.80
2017-12-26T23:34:39.803Z,87.80
2017-12-26T23:37:14.391Z,87.80
2017-12-26T23:39:48.505Z,87.90
2017-12-26T23:42:27.238Z,87.90
2017-12-26T23:45:12.291Z,88.00
2017-12-26T23:47:56.739Z,88.20
2017-12-26T23:50:31.808Z,88.20
2017-12-26T23:53:08.781Z,88.30
2017-12-26T23:55:47.176Z,88.30
2017-12-26T23:58:22.945Z,88.30
